This is the latest recevied weather packets stored in our database for station/object RA1AMO-10. If no packets are shown the sender has not sent any weather packets the latest 1 day(s).
| Time | Temp. | Humidity | Pressure | Rain* | Wind** | Luminosity | Snow |
|---|---|---|---|---|---|---|---|
| 1777915103 | 11.67° C | 79% | 997.9 hPa | - | - | - | - |
| 1777914203 | 11.67° C | 80% | 998.1 hPa | - | - | - | - |
| 1777913303 | 13.33° C | 76% | 997.9 hPa | - | - | - | - |
| 1777912402 | 13.89° C | 73% | 997.9 hPa | - | - | - | - |
| 1777911502 | 13.89° C | 73% | 997.9 hPa | - | - | - | - |
| 1777910602 | 15° C | 67% | 998 hPa | - | - | - | - |
| 1777909702 | 16.11° C | 60% | 997.6 hPa | - | - | - | - |
| 1777908802 | 17.22° C | 55% | 997 hPa | - | - | - | - |
| 1777907902 | 17.22° C | 56% | 997.2 hPa | - | - | - | - |
| 1777907001 | 16.67° C | 57% | 997.4 hPa | - | - | - | - |
| 1777906101 | 16.67° C | 56% | 997.7 hPa | - | - | - | - |
| 1777905201 | 16.67° C | 58% | 997.8 hPa | - | - | - | - |
| 1777904301 | 16.11° C | 59% | 998.1 hPa | - | - | - | - |
| 1777903401 | 16.11° C | 57% | 998.4 hPa | - | - | - | - |
| 1777902501 | 16.11° C | 58% | 998.8 hPa | - | - | - | - |
| 1777901600 | 15.56° C | 57% | 999.2 hPa | - | - | - | - |
| 1777900700 | 15.56° C | 58% | 999.3 hPa | - | - | - | - |
| 1777899800 | 16.11° C | 55% | 1000 hPa | - | - | - | - |
| 1777898900 | 17.22° C | 50% | 999.7 hPa | - | - | - | - |
| 1777898000 | 18.33° C | 43% | 999.7 hPa | - | - | - | - |
| 1777897099 | 18.89° C | 44% | 999.7 hPa | - | - | - | - |
| 1777896196 | 19.44° C | 39% | 999.9 hPa | - | - | - | - |
| 1777895307 | 19.44° C | 39% | 1000.3 hPa | - | - | - | - |
| 1777894396 | 20.56° C | 37% | 1000.6 hPa | - | - | - | - |
| 1777893496 | 20° C | 39% | 1000.7 hPa | - | - | - | - |
* Rain since midnight (hover to see other rain measurements)
** Current wind speed in m/s (hover to see current wind gust speed)